Saddlestring, Wyoming
Current Conditions -  °F | °C
As of 5:53 AM on Sunday 21 Dec 2014 (Local Time) from KBYG Reporting Station
Broken Clouds Broken Clouds  
Wind Chill: 24°   Ceiling: 9500
Heat Index: 32°   Visibility: 10mi
Dew Point: 17°   Wind: 10mph
Humidity: 54%   Direction: 300°WNW
Pressure: 29.49"   Gusts: NA
Location:  44.46°N, 106.9°W
Report Text: KBYG 211253Z AUTO 30009KT 10SM BKN095 BKN120 00/M08 A2949 RMK AO2 SLP003 T00001083 $
Loading
Personal Weather Stations






























Interactive Weather Map New forecast layout! Learn more

10-Day Weather Forecast

Advertisements
Track Severe Weather on mobile